sensor_id;sensor_type;location;lat;lon;timestamp;temperature;humidity
7388;DHT22;3735;50.136;11.062;2023-07-20T00:01:26;16.40;99.90
7388;DHT22;3735;50.136;11.062;2023-07-20T00:03:52;16.40;99.90
7388;DHT22;3735;50.136;11.062;2023-07-20T00:06:22;16.40;99.90
7388;DHT22;3735;50.136;11.062;2023-07-20T00:08:50;16.50;99.90
7388;DHT22;3735;50.136;11.062;2023-07-20T00:11:16;16.40;99.90
7388;DHT22;3735;50.136;11.062;2023-07-20T00:13:42;16.40;99.90
7388;DHT22;3735;50.136;11.062;2023-07-20T00:16:08;16.40;99.90
7388;DHT22;3735;50.136;11.062;2023-07-20T00:18:34;16.40;99.90
7388;DHT22;3735;50.136;11.062;2023-07-20T00:21:00;16.30;99.90
7388;DHT22;3735;50.136;11.062;2023-07-20T00:23:27;16.20;99.90
7388;DHT22;3735;50.136;11.062;2023-07-20T00:25:53;16.00;99.90
7388;DHT22;3735;50.136;11.062;2023-07-20T00:28:19;15.90;99.90
7388;DHT22;3735;50.136;11.062;2023-07-20T00:30:45;15.90;99.90
7388;DHT22;3735;50.136;11.062;2023-07-20T00:33:11;15.90;99.90
7388;DHT22;3735;50.136;11.062;2023-07-20T00:35:40;15.90;99.90
7388;DHT22;3735;50.136;11.062;2023-07-20T00:38:06;15.90;99.90
7388;DHT22;3735;50.136;11.062;2023-07-20T00:40:41;16.00;99.90
7388;DHT22;3735;50.136;11.062;2023-07-20T00:43:08;15.90;99.90
7388;DHT22;3735;50.136;11.062;2023-07-20T00:45:34;15.90;99.90
7388;DHT22;3735;50.136;11.062;2023-07-20T00:48:03;15.70;99.90
7388;DHT22;3735;50.136;11.062;2023-07-20T00:50:32;15.60;99.90
7388;DHT22;3735;50.136;11.062;2023-07-20T00:52:59;15.60;99.90
7388;DHT22;3735;50.136;11.062;2023-07-20T00:55:26;15.60;99.90
7388;DHT22;3735;50.136;11.062;2023-07-20T00:57:53;15.60;99.90
7388;DHT22;3735;50.136;11.062;2023-07-20T01:00:19;15.70;99.90
7388;DHT22;3735;50.136;11.062;2023-07-20T01:02:46;15.60;99.90
7388;DHT22;3735;50.136;11.062;2023-07-20T01:05:13;15.60;99.90
7388;DHT22;3735;50.136;11.062;2023-07-20T01:10:39;15.50;99.90
7388;DHT22;3735;50.136;11.062;2023-07-20T01:13:09;15.50;99.90
7388;DHT22;3735;50.136;11.062;2023-07-20T01:15:36;15.50;99.90
7388;DHT22;3735;50.136;11.062;2023-07-20T01:18:02;15.50;99.90
7388;DHT22;3735;50.136;11.062;2023-07-20T01:20:31;15.50;99.90
7388;DHT22;3735;50.136;11.062;2023-07-20T01:31:53;15.70;99.90
7388;DHT22;3735;50.136;11.062;2023-07-20T01:34:22;15.70;99.90
7388;DHT22;3735;50.136;11.062;2023-07-20T01:36:50;15.70;99.90
7388;DHT22;3735;50.136;11.062;2023-07-20T01:39:20;15.70;99.90
7388;DHT22;3735;50.136;11.062;2023-07-20T01:41:47;15.70;99.90
7388;DHT22;3735;50.136;11.062;2023-07-20T01:44:13;15.80;99.90
7388;DHT22;3735;50.136;11.062;2023-07-20T01:46:39;15.70;99.90
7388;DHT22;3735;50.136;11.062;2023-07-20T01:49:05;15.80;99.90
7388;DHT22;3735;50.136;11.062;2023-07-20T01:51:30;15.80;99.90
7388;DHT22;3735;50.136;11.062;2023-07-20T01:53:56;15.80;99.90
7388;DHT22;3735;50.136;11.062;2023-07-20T01:56:22;15.70;99.90
7388;DHT22;3735;50.136;11.062;2023-07-20T01:58:47;15.70;99.90
7388;DHT22;3735;50.136;11.062;2023-07-20T02:01:13;15.70;99.90
7388;DHT22;3735;50.136;11.062;2023-07-20T02:03:39;15.80;99.90
7388;DHT22;3735;50.136;11.062;2023-07-20T02:06:05;15.80;99.90
7388;DHT22;3735;50.136;11.062;2023-07-20T02:08:30;15.90;99.90
7388;DHT22;3735;50.136;11.062;2023-07-20T02:10:56;15.90;99.90
7388;DHT22;3735;50.136;11.062;2023-07-20T02:13:22;15.90;99.90
7388;DHT22;3735;50.136;11.062;2023-07-20T02:15:48;15.90;99.90
7388;DHT22;3735;50.136;11.062;2023-07-20T02:18:14;15.90;99.90
7388;DHT22;3735;50.136;11.062;2023-07-20T02:20:41;15.80;99.90
7388;DHT22;3735;50.136;11.062;2023-07-20T02:23:07;15.80;99.90
7388;DHT22;3735;50.136;11.062;2023-07-20T02:25:33;15.70;99.90
7388;DHT22;3735;50.136;11.062;2023-07-20T02:27:59;15.70;99.90
7388;DHT22;3735;50.136;11.062;2023-07-20T02:30:24;15.60;99.90
7388;DHT22;3735;50.136;11.062;2023-07-20T02:32:50;15.60;99.90
7388;DHT22;3735;50.136;11.062;2023-07-20T02:35:16;15.60;99.90
7388;DHT22;3735;50.136;11.062;2023-07-20T02:37:42;15.50;99.90
7388;DHT22;3735;50.136;11.062;2023-07-20T02:40:08;15.50;99.90
7388;DHT22;3735;50.136;11.062;2023-07-20T02:42:35;15.40;99.90
7388;DHT22;3735;50.136;11.062;2023-07-20T02:45:02;15.40;99.90
7388;DHT22;3735;50.136;11.062;2023-07-20T02:47:29;15.30;99.90
7388;DHT22;3735;50.136;11.062;2023-07-20T02:49:55;15.30;99.90
7388;DHT22;3735;50.136;11.062;2023-07-20T02:52:21;15.20;99.90
7388;DHT22;3735;50.136;11.062;2023-07-20T02:54:47;15.20;99.90
7388;DHT22;3735;50.136;11.062;2023-07-20T02:57:13;15.10;99.90
7388;DHT22;3735;50.136;11.062;2023-07-20T02:59:39;15.10;99.90
7388;DHT22;3735;50.136;11.062;2023-07-20T03:02:05;15.20;99.90
7388;DHT22;3735;50.136;11.062;2023-07-20T03:04:30;15.10;99.90
7388;DHT22;3735;50.136;11.062;2023-07-20T03:06:56;15.10;99.90
7388;DHT22;3735;50.136;11.062;2023-07-20T03:09:22;15.10;99.90
7388;DHT22;3735;50.136;11.062;2023-07-20T03:11:49;15.00;99.90
7388;DHT22;3735;50.136;11.062;2023-07-20T03:14:15;15.00;99.90
7388;DHT22;3735;50.136;11.062;2023-07-20T03:16:41;15.00;99.90
7388;DHT22;3735;50.136;11.062;2023-07-20T03:19:07;15.00;99.90
7388;DHT22;3735;50.136;11.062;2023-07-20T03:21:32;15.00;99.90
7388;DHT22;3735;50.136;11.062;2023-07-20T03:23:58;14.90;99.90
7388;DHT22;3735;50.136;11.062;2023-07-20T03:26:24;14.80;99.90
7388;DHT22;3735;50.136;11.062;2023-07-20T03:28:49;14.80;99.90
7388;DHT22;3735;50.136;11.062;2023-07-20T03:31:15;14.80;99.90
7388;DHT22;3735;50.136;11.062;2023-07-20T03:33:41;14.80;99.90
7388;DHT22;3735;50.136;11.062;2023-07-20T03:36:07;14.80;99.90
7388;DHT22;3735;50.136;11.062;2023-07-20T03:38:33;14.80;99.90
7388;DHT22;3735;50.136;11.062;2023-07-20T03:41:00;14.80;99.90
7388;DHT22;3735;50.136;11.062;2023-07-20T03:43:28;14.90;99.90
7388;DHT22;3735;50.136;11.062;2023-07-20T03:45:54;14.90;99.90
7388;DHT22;3735;50.136;11.062;2023-07-20T03:48:23;14.90;99.90
7388;DHT22;3735;50.136;11.062;2023-07-20T03:50:51;14.80;99.90
7388;DHT22;3735;50.136;11.062;2023-07-20T03:53:19;14.90;99.90
7388;DHT22;3735;50.136;11.062;2023-07-20T03:55:47;14.90;99.90
7388;DHT22;3735;50.136;11.062;2023-07-20T03:58:14;14.90;99.90
7388;DHT22;3735;50.136;11.062;2023-07-20T04:00:42;14.90;99.90
7388;DHT22;3735;50.136;11.062;2023-07-20T04:03:13;15.00;99.90
7388;DHT22;3735;50.136;11.062;2023-07-20T04:05:39;15.00;99.90
7388;DHT22;3735;50.136;11.062;2023-07-20T04:08:05;15.10;99.90
7388;DHT22;3735;50.136;11.062;2023-07-20T04:10:31;15.10;99.90
7388;DHT22;3735;50.136;11.062;2023-07-20T04:12:57;15.20;99.90
7388;DHT22;3735;50.136;11.062;2023-07-20T04:15:22;15.30;99.90
7388;DHT22;3735;50.136;11.062;2023-07-20T04:17:49;15.30;99.90
7388;DHT22;3735;50.136;11.062;2023-07-20T04:20:15;15.40;99.90
7388;DHT22;3735;50.136;11.062;2023-07-20T04:22:40;15.40;99.90
7388;DHT22;3735;50.136;11.062;2023-07-20T04:25:06;15.40;99.90
7388;DHT22;3735;50.136;11.062;2023-07-20T04:27:33;15.50;99.90
7388;DHT22;3735;50.136;11.062;2023-07-20T04:29:58;15.60;99.90
7388;DHT22;3735;50.136;11.062;2023-07-20T04:32:25;15.70;99.90
7388;DHT22;3735;50.136;11.062;2023-07-20T04:34:51;15.80;99.90
7388;DHT22;3735;50.136;11.062;2023-07-20T04:37:17;15.90;99.90
7388;DHT22;3735;50.136;11.062;2023-07-20T04:39:43;16.10;99.90
7388;DHT22;3735;50.136;11.062;2023-07-20T04:42:08;16.10;99.90
7388;DHT22;3735;50.136;11.062;2023-07-20T04:44:34;16.20;99.90
7388;DHT22;3735;50.136;11.062;2023-07-20T04:47:00;16.30;99.90
7388;DHT22;3735;50.136;11.062;2023-07-20T04:49:26;16.40;99.90
7388;DHT22;3735;50.136;11.062;2023-07-20T04:51:51;16.60;99.90
7388;DHT22;3735;50.136;11.062;2023-07-20T04:54:17;16.80;99.90
7388;DHT22;3735;50.136;11.062;2023-07-20T04:56:44;17.00;99.90
7388;DHT22;3735;50.136;11.062;2023-07-20T04:59:10;17.20;99.90
7388;DHT22;3735;50.136;11.062;2023-07-20T05:01:35;17.40;99.90
7388;DHT22;3735;50.136;11.062;2023-07-20T05:04:04;17.80;99.90
7388;DHT22;3735;50.136;11.062;2023-07-20T05:06:30;18.30;99.90
7388;DHT22;3735;50.136;11.062;2023-07-20T05:08:56;18.80;99.90
7388;DHT22;3735;50.136;11.062;2023-07-20T05:11:21;19.20;99.90
7388;DHT22;3735;50.136;11.062;2023-07-20T05:13:47;19.60;99.90
7388;DHT22;3735;50.136;11.062;2023-07-20T05:16:13;19.90;99.90
7388;DHT22;3735;50.136;11.062;2023-07-20T05:18:39;20.00;99.90
7388;DHT22;3735;50.136;11.062;2023-07-20T05:21:05;20.20;99.90
7388;DHT22;3735;50.136;11.062;2023-07-20T05:23:31;20.50;99.90
7388;DHT22;3735;50.136;11.062;2023-07-20T05:25:58;20.70;99.90
7388;DHT22;3735;50.136;11.062;2023-07-20T05:28:25;20.90;99.90
7388;DHT22;3735;50.136;11.062;2023-07-20T05:30:54;21.30;99.90
7388;DHT22;3735;50.136;11.062;2023-07-20T05:33:21;21.40;99.90
7388;DHT22;3735;50.136;11.062;2023-07-20T05:35:47;21.60;99.90
7388;DHT22;3735;50.136;11.062;2023-07-20T05:38:13;21.50;99.90
7388;DHT22;3735;50.136;11.062;2023-07-20T05:40:43;21.10;99.90
7388;DHT22;3735;50.136;11.062;2023-07-20T05:43:10;21.20;99.90
7388;DHT22;3735;50.136;11.062;2023-07-20T05:45:36;21.40;99.90
7388;DHT22;3735;50.136;11.062;2023-07-20T05:48:02;21.70;99.90
7388;DHT22;3735;50.136;11.062;2023-07-20T05:50:28;22.10;99.90
7388;DHT22;3735;50.136;11.062;2023-07-20T05:52:54;22.50;99.90
7388;DHT22;3735;50.136;11.062;2023-07-20T05:55:20;22.70;99.90
7388;DHT22;3735;50.136;11.062;2023-07-20T05:57:46;23.10;99.90
7388;DHT22;3735;50.136;11.062;2023-07-20T06:00:13;23.50;99.90
7388;DHT22;3735;50.136;11.062;2023-07-20T06:02:40;23.70;99.90
7388;DHT22;3735;50.136;11.062;2023-07-20T06:05:09;23.90;99.90
7388;DHT22;3735;50.136;11.062;2023-07-20T06:07:38;24.30;99.90
7388;DHT22;3735;50.136;11.062;2023-07-20T06:10:05;24.80;99.90
7388;DHT22;3735;50.136;11.062;2023-07-20T06:12:32;25.10;99.90
7388;DHT22;3735;50.136;11.062;2023-07-20T06:15:03;25.30;99.90
7388;DHT22;3735;50.136;11.062;2023-07-20T06:17:30;25.60;99.90
7388;DHT22;3735;50.136;11.062;2023-07-20T06:19:56;25.90;99.90
7388;DHT22;3735;50.136;11.062;2023-07-20T06:22:22;26.20;99.90
7388;DHT22;3735;50.136;11.062;2023-07-20T06:24:48;26.40;99.90
7388;DHT22;3735;50.136;11.062;2023-07-20T06:27:13;26.70;99.90
7388;DHT22;3735;50.136;11.062;2023-07-20T06:29:39;27.00;99.90
7388;DHT22;3735;50.136;11.062;2023-07-20T06:32:05;27.30;99.90
7388;DHT22;3735;50.136;11.062;2023-07-20T06:34:32;27.50;99.90
7388;DHT22;3735;50.136;11.062;2023-07-20T06:37:02;28.00;99.90
7388;DHT22;3735;50.136;11.062;2023-07-20T06:39:29;28.20;99.90
7388;DHT22;3735;50.136;11.062;2023-07-20T06:41:55;27.80;99.90
7388;DHT22;3735;50.136;11.062;2023-07-20T06:44:21;27.60;99.90
7388;DHT22;3735;50.136;11.062;2023-07-20T06:46:47;27.70;99.90
7388;DHT22;3735;50.136;11.062;2023-07-20T06:49:25;28.20;99.90
7388;DHT22;3735;50.136;11.062;2023-07-20T06:51:52;28.30;99.90
7388;DHT22;3735;50.136;11.062;2023-07-20T06:54:18;28.20;99.90
7388;DHT22;3735;50.136;11.062;2023-07-20T06:56:44;28.20;99.90
7388;DHT22;3735;50.136;11.062;2023-07-20T06:59:10;28.30;99.90
7388;DHT22;3735;50.136;11.062;2023-07-20T07:01:35;28.50;99.90
7388;DHT22;3735;50.136;11.062;2023-07-20T07:04:01;28.60;99.90
7388;DHT22;3735;50.136;11.062;2023-07-20T07:06:28;28.60;99.90
7388;DHT22;3735;50.136;11.062;2023-07-20T07:08:54;29.00;99.90
7388;DHT22;3735;50.136;11.062;2023-07-20T07:11:21;29.00;99.90
7388;DHT22;3735;50.136;11.062;2023-07-20T07:13:47;28.90;99.90
7388;DHT22;3735;50.136;11.062;2023-07-20T07:16:15;28.70;99.90
7388;DHT22;3735;50.136;11.062;2023-07-20T07:18:47;29.30;99.90
7388;DHT22;3735;50.136;11.062;2023-07-20T07:21:15;29.90;99.90
7388;DHT22;3735;50.136;11.062;2023-07-20T07:23:41;30.40;99.90
7388;DHT22;3735;50.136;11.062;2023-07-20T07:26:07;30.30;99.90
7388;DHT22;3735;50.136;11.062;2023-07-20T07:28:33;30.00;99.90
7388;DHT22;3735;50.136;11.062;2023-07-20T07:30:58;29.20;99.90
7388;DHT22;3735;50.136;11.062;2023-07-20T07:33:24;28.80;99.90
7388;DHT22;3735;50.136;11.062;2023-07-20T07:35:51;29.20;99.90
7388;DHT22;3735;50.136;11.062;2023-07-20T07:38:18;29.10;99.90
7388;DHT22;3735;50.136;11.062;2023-07-20T07:40:44;29.20;99.90
7388;DHT22;3735;50.136;11.062;2023-07-20T07:43:10;30.00;99.90
7388;DHT22;3735;50.136;11.062;2023-07-20T07:45:37;30.40;99.90
7388;DHT22;3735;50.136;11.062;2023-07-20T07:48:04;30.70;99.90
7388;DHT22;3735;50.136;11.062;2023-07-20T07:50:33;31.00;99.90
7388;DHT22;3735;50.136;11.062;2023-07-20T07:53:00;31.20;99.90
7388;DHT22;3735;50.136;11.062;2023-07-20T07:55:26;31.70;99.90
7388;DHT22;3735;50.136;11.062;2023-07-20T07:57:54;31.20;99.90
7388;DHT22;3735;50.136;11.062;2023-07-20T08:00:20;31.20;99.90
7388;DHT22;3735;50.136;11.062;2023-07-20T08:02:46;30.70;99.90
7388;DHT22;3735;50.136;11.062;2023-07-20T08:05:14;30.40;99.90
7388;DHT22;3735;50.136;11.062;2023-07-20T08:07:39;30.60;99.90
7388;DHT22;3735;50.136;11.062;2023-07-20T08:10:06;31.20;99.90
7388;DHT22;3735;50.136;11.062;2023-07-20T08:12:33;31.70;99.90
7388;DHT22;3735;50.136;11.062;2023-07-20T08:14:58;32.00;99.90
7388;DHT22;3735;50.136;11.062;2023-07-20T08:17:24;31.20;99.90
7388;DHT22;3735;50.136;11.062;2023-07-20T08:19:50;30.90;99.90
7388;DHT22;3735;50.136;11.062;2023-07-20T08:22:16;29.80;99.90
7388;DHT22;3735;50.136;11.062;2023-07-20T08:24:42;29.40;99.90
7388;DHT22;3735;50.136;11.062;2023-07-20T08:27:09;30.10;99.90
7388;DHT22;3735;50.136;11.062;2023-07-20T08:29:35;31.20;99.90
7388;DHT22;3735;50.136;11.062;2023-07-20T08:32:02;31.60;99.90
7388;DHT22;3735;50.136;11.062;2023-07-20T08:34:29;32.20;99.90
7388;DHT22;3735;50.136;11.062;2023-07-20T08:36:56;32.80;99.90
7388;DHT22;3735;50.136;11.062;2023-07-20T08:39:23;32.10;99.90
7388;DHT22;3735;50.136;11.062;2023-07-20T08:41:49;32.10;99.90
7388;DHT22;3735;50.136;11.062;2023-07-20T08:44:17;31.20;99.90
7388;DHT22;3735;50.136;11.062;2023-07-20T08:46:43;31.20;99.90
7388;DHT22;3735;50.136;11.062;2023-07-20T08:49:11;30.70;99.90
7388;DHT22;3735;50.136;11.062;2023-07-20T08:51:37;29.60;99.90
7388;DHT22;3735;50.136;11.062;2023-07-20T08:54:04;28.80;99.90
7388;DHT22;3735;50.136;11.062;2023-07-20T08:56:33;28.90;99.90
7388;DHT22;3735;50.136;11.062;2023-07-20T08:59:00;28.40;99.90
7388;DHT22;3735;50.136;11.062;2023-07-20T09:01:28;27.60;99.90
7388;DHT22;3735;50.136;11.062;2023-07-20T09:03:54;27.00;99.90
7388;DHT22;3735;50.136;11.062;2023-07-20T09:06:22;26.70;99.90
7388;DHT22;3735;50.136;11.062;2023-07-20T09:08:47;26.40;99.90
7388;DHT22;3735;50.136;11.062;2023-07-20T09:11:14;26.80;99.90
7388;DHT22;3735;50.136;11.062;2023-07-20T09:13:40;28.60;99.90
7388;DHT22;3735;50.136;11.062;2023-07-20T09:16:06;29.20;99.90
7388;DHT22;3735;50.136;11.062;2023-07-20T09:18:32;30.00;99.90
7388;DHT22;3735;50.136;11.062;2023-07-20T09:21:04;30.80;99.90
7388;DHT22;3735;50.136;11.062;2023-07-20T09:23:36;32.00;99.90
7388;DHT22;3735;50.136;11.062;2023-07-20T09:26:14;31.60;99.90
7388;DHT22;3735;50.136;11.062;2023-07-20T09:28:49;31.30;99.90
7388;DHT22;3735;50.136;11.062;2023-07-20T09:31:20;32.40;99.90
7388;DHT22;3735;50.136;11.062;2023-07-20T09:33:48;32.80;99.90
7388;DHT22;3735;50.136;11.062;2023-07-20T09:36:15;33.40;99.90
7388;DHT22;3735;50.136;11.062;2023-07-20T09:38:44;34.20;99.90
7388;DHT22;3735;50.136;11.062;2023-07-20T09:41:14;32.70;99.90
7388;DHT22;3735;50.136;11.062;2023-07-20T09:43:41;32.80;99.90
7388;DHT22;3735;50.136;11.062;2023-07-20T09:46:07;33.70;99.90
7388;DHT22;3735;50.136;11.062;2023-07-20T09:48:34;34.20;99.90
7388;DHT22;3735;50.136;11.062;2023-07-20T09:50:59;33.00;99.90
7388;DHT22;3735;50.136;11.062;2023-07-20T09:53:27;32.00;99.90
7388;DHT22;3735;50.136;11.062;2023-07-20T09:55:54;31.30;99.90
7388;DHT22;3735;50.136;11.062;2023-07-20T09:58:21;29.60;99.90
7388;DHT22;3735;50.136;11.062;2023-07-20T10:00:48;29.20;99.90
7388;DHT22;3735;50.136;11.062;2023-07-20T10:03:22;29.10;99.90
7388;DHT22;3735;50.136;11.062;2023-07-20T10:06:04;29.30;99.90
7388;DHT22;3735;50.136;11.062;2023-07-20T10:08:33;29.90;99.90
7388;DHT22;3735;50.136;11.062;2023-07-20T10:11:05;31.10;99.90
7388;DHT22;3735;50.136;11.062;2023-07-20T10:13:37;30.70;99.90
7388;DHT22;3735;50.136;11.062;2023-07-20T10:16:10;30.70;99.90
7388;DHT22;3735;50.136;11.062;2023-07-20T10:19:11;31.50;99.90
7388;DHT22;3735;50.136;11.062;2023-07-20T10:21:47;33.00;99.90
7388;DHT22;3735;50.136;11.062;2023-07-20T10:24:16;33.60;99.90
7388;DHT22;3735;50.136;11.062;2023-07-20T10:26:43;33.70;99.90
7388;DHT22;3735;50.136;11.062;2023-07-20T10:29:09;34.40;99.90
7388;DHT22;3735;50.136;11.062;2023-07-20T10:31:37;35.10;99.90
7388;DHT22;3735;50.136;11.062;2023-07-20T10:34:03;35.50;99.90
7388;DHT22;3735;50.136;11.062;2023-07-20T10:36:29;36.20;99.90
7388;DHT22;3735;50.136;11.062;2023-07-20T10:38:56;35.60;99.90
7388;DHT22;3735;50.136;11.062;2023-07-20T10:41:39;33.90;99.90
7388;DHT22;3735;50.136;11.062;2023-07-20T10:44:09;32.60;99.90
7388;DHT22;3735;50.136;11.062;2023-07-20T10:49:05;31.10;99.90
7388;DHT22;3735;50.136;11.062;2023-07-20T10:51:59;31.30;99.90
7388;DHT22;3735;50.136;11.062;2023-07-20T10:56:56;34.20;99.90
7388;DHT22;3735;50.136;11.062;2023-07-20T11:01:49;36.00;99.90
7388;DHT22;3735;50.136;11.062;2023-07-20T11:04:17;35.10;99.90
7388;DHT22;3735;50.136;11.062;2023-07-20T11:06:45;33.50;99.90
7388;DHT22;3735;50.136;11.062;2023-07-20T11:09:13;31.80;99.90
7388;DHT22;3735;50.136;11.062;2023-07-20T11:11:47;30.50;99.90
7388;DHT22;3735;50.136;11.062;2023-07-20T11:14:21;29.50;99.90
7388;DHT22;3735;50.136;11.062;2023-07-20T11:16:49;28.70;99.90
7388;DHT22;3735;50.136;11.062;2023-07-20T11:19:22;29.00;99.90
7388;DHT22;3735;50.136;11.062;2023-07-20T11:21:58;31.30;99.90
7388;DHT22;3735;50.136;11.062;2023-07-20T11:24:24;33.20;99.90
7388;DHT22;3735;50.136;11.062;2023-07-20T11:26:52;34.10;99.90
7388;DHT22;3735;50.136;11.062;2023-07-20T11:29:20;34.10;99.90
7388;DHT22;3735;50.136;11.062;2023-07-20T11:31:48;34.30;99.90
7388;DHT22;3735;50.136;11.062;2023-07-20T11:34:19;34.90;99.90
7388;DHT22;3735;50.136;11.062;2023-07-20T11:36:48;33.80;99.90
7388;DHT22;3735;50.136;11.062;2023-07-20T11:39:16;31.90;99.90
7388;DHT22;3735;50.136;11.062;2023-07-20T11:41:51;30.10;99.90
7388;DHT22;3735;50.136;11.062;2023-07-20T11:44:22;28.90;99.90
7388;DHT22;3735;50.136;11.062;2023-07-20T11:47:09;27.80;99.90
7388;DHT22;3735;50.136;11.062;2023-07-20T11:49:38;28.10;99.90
7388;DHT22;3735;50.136;11.062;2023-07-20T11:52:09;30.40;99.90
7388;DHT22;3735;50.136;11.062;2023-07-20T11:54:38;31.80;99.90
7388;DHT22;3735;50.136;11.062;2023-07-20T11:57:05;32.90;99.90
7388;DHT22;3735;50.136;11.062;2023-07-20T11:59:31;32.80;99.90
7388;DHT22;3735;50.136;11.062;2023-07-20T12:02:01;32.30;99.90
7388;DHT22;3735;50.136;11.062;2023-07-20T12:04:33;32.50;99.90
7388;DHT22;3735;50.136;11.062;2023-07-20T12:07:00;33.00;99.90
7388;DHT22;3735;50.136;11.062;2023-07-20T12:09:25;33.00;99.90
7388;DHT22;3735;50.136;11.062;2023-07-20T12:11:51;32.60;99.90
7388;DHT22;3735;50.136;11.062;2023-07-20T12:14:17;31.70;99.90
7388;DHT22;3735;50.136;11.062;2023-07-20T12:16:43;30.30;99.90
7388;DHT22;3735;50.136;11.062;2023-07-20T12:19:11;29.00;99.90
7388;DHT22;3735;50.136;11.062;2023-07-20T12:21:40;28.10;99.90
7388;DHT22;3735;50.136;11.062;2023-07-20T12:24:08;27.80;99.90
7388;DHT22;3735;50.136;11.062;2023-07-20T12:26:35;29.60;99.90
7388;DHT22;3735;50.136;11.062;2023-07-20T12:29:01;30.20;99.90
7388;DHT22;3735;50.136;11.062;2023-07-20T12:31:29;29.70;99.90
7388;DHT22;3735;50.136;11.062;2023-07-20T12:33:57;28.80;99.90
7388;DHT22;3735;50.136;11.062;2023-07-20T12:36:24;27.90;99.90
7388;DHT22;3735;50.136;11.062;2023-07-20T12:38:50;27.40;99.90
7388;DHT22;3735;50.136;11.062;2023-07-20T12:41:16;27.10;99.90
7388;DHT22;3735;50.136;11.062;2023-07-20T12:43:44;26.90;99.90
7388;DHT22;3735;50.136;11.062;2023-07-20T12:46:11;27.00;99.90
7388;DHT22;3735;50.136;11.062;2023-07-20T12:48:39;27.30;99.90
7388;DHT22;3735;50.136;11.062;2023-07-20T12:51:07;27.50;99.90
7388;DHT22;3735;50.136;11.062;2023-07-20T12:53:35;27.90;99.90
7388;DHT22;3735;50.136;11.062;2023-07-20T12:56:01;29.40;99.90
7388;DHT22;3735;50.136;11.062;2023-07-20T12:58:28;30.50;99.90
7388;DHT22;3735;50.136;11.062;2023-07-20T13:00:54;31.80;99.90
7388;DHT22;3735;50.136;11.062;2023-07-20T13:03:20;33.50;99.90
7388;DHT22;3735;50.136;11.062;2023-07-20T13:05:46;34.20;99.90
7388;DHT22;3735;50.136;11.062;2023-07-20T13:08:13;33.00;99.90
7388;DHT22;3735;50.136;11.062;2023-07-20T13:10:39;31.50;99.90
7388;DHT22;3735;50.136;11.062;2023-07-20T13:13:05;30.90;99.90
7388;DHT22;3735;50.136;11.062;2023-07-20T13:15:33;31.40;99.90
7388;DHT22;3735;50.136;11.062;2023-07-20T13:18:06;32.30;99.90
7388;DHT22;3735;50.136;11.062;2023-07-20T13:20:32;31.50;99.90
7388;DHT22;3735;50.136;11.062;2023-07-20T13:22:58;30.30;99.90
7388;DHT22;3735;50.136;11.062;2023-07-20T13:25:24;29.00;99.90
7388;DHT22;3735;50.136;11.062;2023-07-20T13:27:51;27.80;99.90
7388;DHT22;3735;50.136;11.062;2023-07-20T13:30:16;27.20;99.90
7388;DHT22;3735;50.136;11.062;2023-07-20T13:32:45;27.20;99.90
7388;DHT22;3735;50.136;11.062;2023-07-20T13:35:12;28.60;99.90
7388;DHT22;3735;50.136;11.062;2023-07-20T13:37:38;28.50;99.90
7388;DHT22;3735;50.136;11.062;2023-07-20T13:40:04;27.80;99.90
7388;DHT22;3735;50.136;11.062;2023-07-20T13:42:34;27.20;99.90
7388;DHT22;3735;50.136;11.062;2023-07-20T13:45:00;26.70;99.90
7388;DHT22;3735;50.136;11.062;2023-07-20T13:47:26;26.50;99.90
7388;DHT22;3735;50.136;11.062;2023-07-20T13:49:52;26.40;99.90
7388;DHT22;3735;50.136;11.062;2023-07-20T13:52:18;26.30;99.90
7388;DHT22;3735;50.136;11.062;2023-07-20T13:54:44;26.10;99.90
7388;DHT22;3735;50.136;11.062;2023-07-20T13:57:10;25.90;99.90
7388;DHT22;3735;50.136;11.062;2023-07-20T13:59:35;25.90;99.90
7388;DHT22;3735;50.136;11.062;2023-07-20T14:02:01;25.90;99.90
7388;DHT22;3735;50.136;11.062;2023-07-20T14:04:27;26.00;99.90
7388;DHT22;3735;50.136;11.062;2023-07-20T14:06:54;26.10;99.90
7388;DHT22;3735;50.136;11.062;2023-07-20T14:09:20;26.70;99.90
7388;DHT22;3735;50.136;11.062;2023-07-20T14:11:45;28.50;99.90
7388;DHT22;3735;50.136;11.062;2023-07-20T14:14:11;30.50;99.90
7388;DHT22;3735;50.136;11.062;2023-07-20T14:16:37;31.10;99.90
7388;DHT22;3735;50.136;11.062;2023-07-20T14:19:02;31.40;99.90
7388;DHT22;3735;50.136;11.062;2023-07-20T14:21:30;31.50;99.90
7388;DHT22;3735;50.136;11.062;2023-07-20T14:23:56;31.80;99.90
7388;DHT22;3735;50.136;11.062;2023-07-20T14:26:23;32.20;99.90
7388;DHT22;3735;50.136;11.062;2023-07-20T14:28:49;33.00;99.90
7388;DHT22;3735;50.136;11.062;2023-07-20T14:31:15;33.90;99.90
7388;DHT22;3735;50.136;11.062;2023-07-20T14:33:41;33.40;99.90
7388;DHT22;3735;50.136;11.062;2023-07-20T14:36:06;32.10;99.90
7388;DHT22;3735;50.136;11.062;2023-07-20T14:38:34;30.80;99.90
7388;DHT22;3735;50.136;11.062;2023-07-20T14:41:00;29.80;99.90
7388;DHT22;3735;50.136;11.062;2023-07-20T14:43:26;29.00;99.90
7388;DHT22;3735;50.136;11.062;2023-07-20T14:45:51;28.50;99.90
7388;DHT22;3735;50.136;11.062;2023-07-20T14:48:17;28.00;99.90
7388;DHT22;3735;50.136;11.062;2023-07-20T14:50:43;27.80;99.90
7388;DHT22;3735;50.136;11.062;2023-07-20T14:53:15;27.50;99.90
7388;DHT22;3735;50.136;11.062;2023-07-20T14:55:41;27.40;99.90
7388;DHT22;3735;50.136;11.062;2023-07-20T14:58:07;27.20;99.90
7388;DHT22;3735;50.136;11.062;2023-07-20T15:00:33;28.10;99.90
7388;DHT22;3735;50.136;11.062;2023-07-20T15:02:59;30.00;99.90
7388;DHT22;3735;50.136;11.062;2023-07-20T15:05:25;31.40;99.90
7388;DHT22;3735;50.136;11.062;2023-07-20T15:07:54;31.00;99.90
7388;DHT22;3735;50.136;11.062;2023-07-20T15:10:20;30.30;99.90
7388;DHT22;3735;50.136;11.062;2023-07-20T15:12:46;29.60;99.90
7388;DHT22;3735;50.136;11.062;2023-07-20T15:15:13;28.80;99.90
7388;DHT22;3735;50.136;11.062;2023-07-20T15:17:41;28.10;99.90
7388;DHT22;3735;50.136;11.062;2023-07-20T15:20:10;28.20;99.90
7388;DHT22;3735;50.136;11.062;2023-07-20T15:22:37;29.40;99.90
7388;DHT22;3735;50.136;11.062;2023-07-20T15:25:08;30.20;99.90
7388;DHT22;3735;50.136;11.062;2023-07-20T15:27:37;30.40;99.90
7388;DHT22;3735;50.136;11.062;2023-07-20T15:30:04;30.40;99.90
7388;DHT22;3735;50.136;11.062;2023-07-20T15:32:30;30.20;99.90
7388;DHT22;3735;50.136;11.062;2023-07-20T15:34:59;29.50;99.90
7388;DHT22;3735;50.136;11.062;2023-07-20T15:37:25;29.40;99.90
7388;DHT22;3735;50.136;11.062;2023-07-20T15:39:51;29.80;99.90
7388;DHT22;3735;50.136;11.062;2023-07-20T15:42:17;30.00;99.90
7388;DHT22;3735;50.136;11.062;2023-07-20T15:44:43;29.50;99.90
7388;DHT22;3735;50.136;11.062;2023-07-20T15:47:08;29.50;99.90
7388;DHT22;3735;50.136;11.062;2023-07-20T15:49:36;29.70;99.90
7388;DHT22;3735;50.136;11.062;2023-07-20T15:52:02;29.70;99.90
7388;DHT22;3735;50.136;11.062;2023-07-20T15:54:28;29.60;99.90
7388;DHT22;3735;50.136;11.062;2023-07-20T15:56:53;29.70;99.90
7388;DHT22;3735;50.136;11.062;2023-07-20T15:59:19;29.40;99.90
7388;DHT22;3735;50.136;11.062;2023-07-20T16:01:45;28.70;99.90
7388;DHT22;3735;50.136;11.062;2023-07-20T16:04:12;27.90;99.90